Time;durP1;ratioP1;P1;durP2;ratioP2;P2;SDS_P1;SDS_P2;PMS_P1;PMS_P2;Temp;Humidity;BMP_temperature;BMP_pressure;BME280_temperature;BME280_humidity;BME280_pressure;Samples;Min_cycle;Max_cycle;Signal;HPM_P1;HPM_P2
2023/03/05 00:01:28;;;;;;;31.42;16.13;;;;;;;;;;4986517;28;20071;-71
2023/03/05 00:03:54;;;;;;;28.33;14.10;;;;;;;;;;4978960;28;20977;-72
2023/03/05 00:06:22;;;;;;;30.45;14.23;;;;;;;;;;4986879;28;20058;-72
2023/03/05 00:08:48;;;;;;;25.63;11.13;;;;;;;;;;4981873;28;20054;-72
2023/03/05 00:11:14;;;;;;;32.05;15.52;;;;;;;;;;4983573;28;20112;-72
2023/03/05 00:13:40;;;;;;;31.70;15.35;;;;;;;;;;4991016;28;20445;-72
2023/03/05 00:16:09;;;;;;;30.17;12.93;;;;;;;;;;4984654;28;20078;-72
2023/03/05 00:18:35;;;;;;;25.05;12.40;;;;;;;;;;4986616;28;20065;-72
2023/03/05 00:21:02;;;;;;;37.72;17.00;;;;;;;;;;4984977;28;20054;-71
2023/03/05 00:23:27;;;;;;;27.90;15.25;;;;;;;;;;4989042;28;21020;-72
2023/03/05 00:25:53;;;;;;;27.75;14.40;;;;;;;;;;4984414;28;20152;-72
2023/03/05 00:28:18;;;;;;;23.33;11.82;;;;;;;;;;4984288;28;20061;-72
2023/03/05 00:30:44;;;;;;;16.65;9.80;;;;;;;;;;4984883;28;20096;-72
2023/03/05 00:33:11;;;;;;;28.50;15.25;;;;;;;;;;4984462;28;20460;-72
2023/03/05 00:35:41;;;;;;;21.63;12.07;;;;;;;;;;4984539;28;20072;-72
2023/03/05 00:38:07;;;;;;;21.23;11.27;;;;;;;;;;4990606;28;20145;-72
2023/03/05 00:40:35;;;;;;;13.27;8.02;;;;;;;;;;4984304;28;20061;-72
2023/03/05 00:43:01;;;;;;;23.95;12.00;;;;;;;;;;5007045;28;20085;-72
2023/03/05 00:45:26;;;;;;;22.77;11.55;;;;;;;;;;4983264;28;20070;-71
2023/03/05 00:47:52;;;;;;;20.02;11.15;;;;;;;;;;4995132;28;20493;-72
2023/03/05 00:50:17;;;;;;;17.38;9.20;;;;;;;;;;4971366;28;20038;-72
2023/03/05 00:52:42;;;;;;;17.25;10.00;;;;;;;;;;4990780;28;20133;-72
2023/03/05 00:55:08;;;;;;;18.05;9.73;;;;;;;;;;4981538;28;20054;-72
2023/03/05 00:57:34;;;;;;;36.58;17.42;;;;;;;;;;4971752;28;20047;-72
2023/03/05 00:59:59;;;;;;;36.28;16.88;;;;;;;;;;4983743;28;20413;-72
2023/03/05 01:02:25;;;;;;;32.42;16.52;;;;;;;;;;4991464;28;20050;-72
2023/03/05 01:04:50;;;;;;;38.80;17.85;;;;;;;;;;4991163;28;20133;-72
2023/03/05 01:07:15;;;;;;;40.83;16.83;;;;;;;;;;4982134;28;20046;-72
2023/03/05 01:09:41;;;;;;;39.53;18.40;;;;;;;;;;4982926;28;20150;-72
2023/03/05 01:12:06;;;;;;;36.25;18.30;;;;;;;;;;4983473;28;20056;-72
2023/03/05 01:14:33;;;;;;;33.65;18.13;;;;;;;;;;4980404;28;20057;-72
2023/03/05 01:16:58;;;;;;;32.00;14.30;;;;;;;;;;4983507;28;20073;-72
2023/03/05 01:19:24;;;;;;;32.78;16.48;;;;;;;;;;4971033;28;20157;-72
2023/03/05 01:21:49;;;;;;;22.33;12.23;;;;;;;;;;4985302;28;20058;-72
2023/03/05 01:24:15;;;;;;;31.00;15.13;;;;;;;;;;4995191;28;20050;-72
2023/03/05 01:26:40;;;;;;;35.90;17.80;;;;;;;;;;4983593;28;20409;-72
2023/03/05 01:29:05;;;;;;;23.13;12.38;;;;;;;;;;4983373;28;20117;-72
2023/03/05 01:31:31;;;;;;;26.85;12.00;;;;;;;;;;4983167;28;20046;-72
2023/03/05 01:33:58;;;;;;;12.20;7.95;;;;;;;;;;4991123;28;20492;-72
2023/03/05 01:36:24;;;;;;;29.67;13.40;;;;;;;;;;4995812;28;20129;-70
2023/03/05 01:38:50;;;;;;;25.52;11.30;;;;;;;;;;4984864;28;20045;-71
2023/03/05 01:41:17;;;;;;;34.25;14.73;;;;;;;;;;5003599;28;20497;-70
2023/03/05 01:43:43;;;;;;;29.13;14.25;;;;;;;;;;4990921;28;20133;-71
2023/03/05 01:46:31;;;;;;;25.83;13.10;;;;;;;;;;4984839;28;20053;-71
2023/03/05 01:49:16;;;;;;;32.97;16.30;;;;;;;;;;4978433;28;20085;-71
2023/03/05 01:51:55;;;;;;;33.85;16.52;;;;;;;;;;4982804;28;20104;-72
2023/03/05 01:54:23;;;;;;;34.00;16.25;;;;;;;;;;4986371;28;20046;-71
2023/03/05 01:56:51;;;;;;;34.10;16.33;;;;;;;;;;5016536;28;20701;-72
2023/03/05 01:59:17;;;;;;;29.75;14.40;;;;;;;;;;5004015;28;20045;-71
2023/03/05 02:01:47;;;;;;;27.20;14.23;;;;;;;;;;4984996;28;20059;-70
2023/03/05 02:04:15;;;;;;;36.13;17.35;;;;;;;;;;4996661;28;20956;-71
2023/03/05 02:06:43;;;;;;;32.25;16.08;;;;;;;;;;4986128;28;21024;-71
2023/03/05 02:09:10;;;;;;;30.40;14.93;;;;;;;;;;4997651;28;20437;-71
2023/03/05 02:11:36;;;;;;;36.30;17.52;;;;;;;;;;4996796;28;20046;-71
2023/03/05 02:14:03;;;;;;;35.72;17.60;;;;;;;;;;4996755;28;20045;-71
2023/03/05 02:16:35;;;;;;;37.97;18.85;;;;;;;;;;4996819;28;20097;-71
2023/03/05 02:19:06;;;;;;;27.20;14.52;;;;;;;;;;4990052;28;20565;-73
2023/03/05 02:21:46;;;;;;;42.38;18.10;;;;;;;;;;4983119;28;20054;-73
2023/03/05 02:24:17;;;;;;;32.22;14.25;;;;;;;;;;4981776;28;20578;-73
2023/03/05 02:26:45;;;;;;;35.47;16.33;;;;;;;;;;4985223;28;20153;-71
2023/03/05 02:29:18;;;;;;;26.13;13.73;;;;;;;;;;4983320;28;20042;-72
2023/03/05 02:31:44;;;;;;;42.25;18.67;;;;;;;;;;4984430;28;20046;-72
2023/03/05 02:34:11;;;;;;;42.15;18.33;;;;;;;;;;4986149;28;20099;-72
2023/03/05 02:36:36;;;;;;;40.15;18.13;;;;;;;;;;4982552;28;20050;-72
2023/03/05 02:39:02;;;;;;;37.10;16.30;;;;;;;;;;5013187;28;20057;-73
2023/03/05 02:41:28;;;;;;;33.28;15.65;;;;;;;;;;4997642;28;20051;-72
2023/03/05 02:43:55;;;;;;;40.92;18.55;;;;;;;;;;4995224;28;20103;-71
2023/03/05 02:46:21;;;;;;;37.00;17.95;;;;;;;;;;4981233;28;20626;-71
2023/03/05 02:48:46;;;;;;;31.23;14.27;;;;;;;;;;4982073;28;20090;-71
2023/03/05 02:51:13;;;;;;;38.60;18.17;;;;;;;;;;4992098;28;20107;-70
2023/03/05 02:53:40;;;;;;;42.40;18.60;;;;;;;;;;4993117;28;20054;-71
2023/03/05 02:56:06;;;;;;;41.30;18.17;;;;;;;;;;5000480;28;20072;-71
2023/03/05 02:58:33;;;;;;;36.17;17.17;;;;;;;;;;4996727;28;20073;-70
2023/03/05 03:00:59;;;;;;;43.20;18.50;;;;;;;;;;4998018;28;20479;-71
2023/03/05 03:03:24;;;;;;;23.38;11.13;;;;;;;;;;4992620;28;20050;-71
2023/03/05 03:05:50;;;;;;;37.42;16.33;;;;;;;;;;4981152;28;20527;-71
2023/03/05 03:08:15;;;;;;;36.20;16.17;;;;;;;;;;4981474;28;20054;-71
2023/03/05 03:10:40;;;;;;;40.08;17.75;;;;;;;;;;4983922;28;20046;-71
2023/03/05 03:13:06;;;;;;;38.95;17.58;;;;;;;;;;4993008;28;20046;-70
2023/03/05 03:15:31;;;;;;;42.00;18.50;;;;;;;;;;4992736;28;20448;-70
2023/03/05 03:17:57;;;;;;;18.88;8.10;;;;;;;;;;4983920;28;20508;-70
2023/03/05 03:20:23;;;;;;;43.40;15.70;;;;;;;;;;4981902;28;20576;-71
2023/03/05 03:22:48;;;;;;;39.17;18.23;;;;;;;;;;4984463;28;20054;-70
2023/03/05 03:25:19;;;;;;;33.50;15.60;;;;;;;;;;4995247;28;20057;-70
2023/03/05 03:27:44;;;;;;;18.85;11.55;;;;;;;;;;4983531;28;20077;-70
2023/03/05 03:30:11;;;;;;;28.27;12.73;;;;;;;;;;4981253;28;20669;-70
2023/03/05 03:32:36;;;;;;;45.80;20.00;;;;;;;;;;4984708;28;20054;-69
2023/03/05 03:35:02;;;;;;;41.47;17.63;;;;;;;;;;4992923;28;20038;-72
2023/03/05 03:37:29;;;;;;;38.97;16.88;;;;;;;;;;4986087;28;20508;-72
2023/03/05 03:39:54;;;;;;;41.95;17.23;;;;;;;;;;4981234;28;20058;-68
2023/03/05 03:42:21;;;;;;;26.60;13.23;;;;;;;;;;4982056;28;20061;-71
2023/03/05 03:44:47;;;;;;;29.23;12.90;;;;;;;;;;4983997;28;20409;-70
2023/03/05 03:47:12;;;;;;;41.65;17.38;;;;;;;;;;4983819;28;20049;-71
2023/03/05 03:49:38;;;;;;;23.38;9.82;;;;;;;;;;4980747;28;20134;-71
2023/03/05 03:52:03;;;;;;;30.92;13.95;;;;;;;;;;4981443;28;20451;-71
2023/03/05 03:54:29;;;;;;;43.67;17.83;;;;;;;;;;4983350;28;20050;-71
2023/03/05 03:56:54;;;;;;;34.35;13.43;;;;;;;;;;4984636;28;20129;-70
2023/03/05 03:59:20;;;;;;;27.48;13.55;;;;;;;;;;4994604;28;20081;-71
2023/03/05 04:01:46;;;;;;;42.08;19.52;;;;;;;;;;4980740;28;20165;-71
2023/03/05 04:04:11;;;;;;;37.42;13.90;;;;;;;;;;4980328;28;20043;-71
2023/03/05 04:06:37;;;;;;;35.17;13.85;;;;;;;;;;4981314;28;20073;-70
2023/03/05 04:09:04;;;;;;;40.38;17.30;;;;;;;;;;5000235;28;20042;-70
2023/03/05 04:11:29;;;;;;;34.05;13.23;;;;;;;;;;4984870;28;20050;-72
2023/03/05 04:13:54;;;;;;;38.28;16.60;;;;;;;;;;4980285;28;20129;-71
2023/03/05 04:16:20;;;;;;;22.38;11.70;;;;;;;;;;4986672;28;20053;-71
2023/03/05 04:18:46;;;;;;;24.23;11.15;;;;;;;;;;4982135;28;20444;-71
2023/03/05 04:21:11;;;;;;;16.65;11.48;;;;;;;;;;4987738;28;20137;-71
2023/03/05 04:23:37;;;;;;;23.08;8.90;;;;;;;;;;4980163;28;21072;-70
2023/03/05 04:26:03;;;;;;;30.27;11.55;;;;;;;;;;4988251;28;20050;-70
2023/03/05 04:28:28;;;;;;;25.58;11.38;;;;;;;;;;4985293;28;20058;-70
2023/03/05 04:30:54;;;;;;;42.45;15.30;;;;;;;;;;4984810;28;20046;-70
2023/03/05 04:33:19;;;;;;;23.25;9.07;;;;;;;;;;4980820;28;20153;-70
2023/03/05 04:35:45;;;;;;;18.38;9.60;;;;;;;;;;4979539;28;20394;-71
2023/03/05 04:38:11;;;;;;;29.35;13.52;;;;;;;;;;4980907;28;20508;-70
2023/03/05 04:40:37;;;;;;;31.33;14.02;;;;;;;;;;4984124;28;20440;-71
2023/03/05 04:43:03;;;;;;;14.35;8.13;;;;;;;;;;4988311;28;20058;-71
2023/03/05 04:45:29;;;;;;;18.70;9.13;;;;;;;;;;4983974;28;20046;-70
2023/03/05 04:47:55;;;;;;;26.42;12.27;;;;;;;;;;4980484;28;20103;-70
2023/03/05 04:50:20;;;;;;;22.58;9.30;;;;;;;;;;4984703;28;20054;-69
2023/03/05 04:52:45;;;;;;;33.97;11.55;;;;;;;;;;4978105;28;20072;-69
2023/03/05 04:55:13;;;;;;;24.77;11.35;;;;;;;;;;4979924;28;20085;-70
2023/03/05 04:57:38;;;;;;;31.75;13.93;;;;;;;;;;4993852;28;20050;-69
2023/03/05 05:00:07;;;;;;;38.42;15.45;;;;;;;;;;4984079;28;20390;-68
2023/03/05 05:02:33;;;;;;;20.73;11.10;;;;;;;;;;4984425;28;20042;-68
2023/03/05 05:04:59;;;;;;;34.08;14.25;;;;;;;;;;4988242;28;20839;-69
2023/03/05 05:07:24;;;;;;;26.20;11.02;;;;;;;;;;4995027;28;20117;-69
2023/03/05 05:09:50;;;;;;;30.13;12.02;;;;;;;;;;4983524;28;20057;-69
2023/03/05 05:12:15;;;;;;;36.35;15.23;;;;;;;;;;4984577;28;20069;-69
2023/03/05 05:14:40;;;;;;;32.17;13.80;;;;;;;;;;4990866;28;20104;-70
2023/03/05 05:17:06;;;;;;;15.40;8.65;;;;;;;;;;4984394;28;20034;-70
2023/03/05 05:19:33;;;;;;;30.60;14.25;;;;;;;;;;4982824;28;20042;-70
2023/03/05 05:21:59;;;;;;;28.70;13.05;;;;;;;;;;4984286;28;20065;-70
2023/03/05 05:24:24;;;;;;;17.10;8.55;;;;;;;;;;4982627;28;20058;-69
2023/03/05 05:26:50;;;;;;;17.23;8.40;;;;;;;;;;4993140;28;20046;-69
2023/03/05 05:29:15;;;;;;;34.92;14.45;;;;;;;;;;4983823;28;20130;-69
2023/03/05 05:31:41;;;;;;;30.05;12.80;;;;;;;;;;4983148;28;20569;-69
2023/03/05 05:34:06;;;;;;;21.90;10.20;;;;;;;;;;4982733;28;20045;-69
2023/03/05 05:36:32;;;;;;;34.83;14.38;;;;;;;;;;4986991;28;20448;-69
2023/03/05 05:38:57;;;;;;;16.70;8.60;;;;;;;;;;4991209;28;20038;-69
2023/03/05 05:41:23;;;;;;;34.70;14.55;;;;;;;;;;4983478;28;20111;-69
2023/03/05 05:43:49;;;;;;;29.55;12.68;;;;;;;;;;4982569;28;20104;-69
2023/03/05 05:46:17;;;;;;;27.05;12.02;;;;;;;;;;4983606;28;20439;-69
2023/03/05 05:48:44;;;;;;;32.17;14.77;;;;;;;;;;4991233;28;20085;-69
2023/03/05 05:51:18;;;;;;;34.42;14.88;;;;;;;;;;4983823;28;20389;-69
2023/03/05 05:53:44;;;;;;;30.80;11.80;;;;;;;;;;4982482;28;20073;-69
2023/03/05 05:56:11;;;;;;;34.47;14.65;;;;;;;;;;4983088;28;20042;-69
2023/03/05 05:58:38;;;;;;;41.92;10.98;;;;;;;;;;4998716;28;20524;-69
2023/03/05 06:01:18;;;;;;;34.10;12.50;;;;;;;;;;4990791;28;20058;-69
2023/03/05 06:03:44;;;;;;;25.45;11.43;;;;;;;;;;4983260;28;20056;-71
2023/03/05 06:06:11;;;;;;;31.48;10.13;;;;;;;;;;4984197;28;20050;-70
2023/03/05 06:08:37;;;;;;;43.17;16.63;;;;;;;;;;4994470;28;20504;-71
2023/03/05 06:11:03;;;;;;;32.72;13.60;;;;;;;;;;4990745;28;20485;-71
2023/03/05 06:13:28;;;;;;;25.80;10.10;;;;;;;;;;5000050;28;20097;-70
2023/03/05 06:15:55;;;;;;;25.30;12.15;;;;;;;;;;4984331;28;20136;-70
2023/03/05 06:18:21;;;;;;;33.25;14.70;;;;;;;;;;4984834;28;20922;-70
2023/03/05 06:20:53;;;;;;;30.00;13.82;;;;;;;;;;4982304;28;20057;-70
2023/03/05 06:23:18;;;;;;;7.13;4.78;;;;;;;;;;4982618;28;20051;-70
2023/03/05 06:25:44;;;;;;;35.10;14.20;;;;;;;;;;4981984;28;20416;-68
2023/03/05 06:28:09;;;;;;;24.33;10.32;;;;;;;;;;4982455;28;20042;-71
2023/03/05 06:30:35;;;;;;;27.77;13.02;;;;;;;;;;4982724;28;20043;-66
2023/03/05 06:33:01;;;;;;;13.88;7.68;;;;;;;;;;4982871;28;20184;-72
2023/03/05 06:35:26;;;;;;;21.42;9.52;;;;;;;;;;4984303;28;20210;-68
2023/03/05 06:37:51;;;;;;;28.33;13.77;;;;;;;;;;4984967;28;20062;-70
2023/03/05 06:40:17;;;;;;;12.65;8.32;;;;;;;;;;4984595;28;20038;-71
2023/03/05 06:42:42;;;;;;;21.42;9.80;;;;;;;;;;4986738;28;20151;-72
2023/03/05 06:45:08;;;;;;;20.42;9.23;;;;;;;;;;4986410;28;20503;-69
2023/03/05 06:47:34;;;;;;;28.83;12.90;;;;;;;;;;4987196;28;20042;-71
2023/03/05 06:49:59;;;;;;;28.95;12.55;;;;;;;;;;4983936;28;20127;-71
2023/03/05 06:52:25;;;;;;;28.15;14.18;;;;;;;;;;4988320;28;20046;-69
2023/03/05 06:54:51;;;;;;;31.98;12.75;;;;;;;;;;4980699;28;20129;-69
2023/03/05 06:57:17;;;;;;;27.55;11.95;;;;;;;;;;4976727;28;20045;-69
2023/03/05 06:59:42;;;;;;;30.73;14.35;;;;;;;;;;4980959;28;20034;-69
2023/03/05 07:02:10;;;;;;;22.27;9.85;;;;;;;;;;4983593;28;20524;-69
2023/03/05 07:04:36;;;;;;;29.77;11.05;;;;;;;;;;4992066;28;20066;-69
2023/03/05 07:07:01;;;;;;;28.83;13.68;;;;;;;;;;4984186;28;20041;-68
2023/03/05 07:09:27;;;;;;;31.73;13.77;;;;;;;;;;4982031;28;20031;-68
2023/03/05 07:11:52;;;;;;;22.45;10.18;;;;;;;;;;4980656;28;20052;-71
2023/03/05 07:14:17;;;;;;;34.88;12.95;;;;;;;;;;4977294;28;21550;-69
2023/03/05 07:16:43;;;;;;;22.10;10.35;;;;;;;;;;4980248;28;20397;-69
2023/03/05 07:19:10;;;;;;;25.00;11.18;;;;;;;;;;4984477;28;20121;-69
2023/03/05 07:21:35;;;;;;;24.13;12.38;;;;;;;;;;4983912;28;20096;-70
2023/03/05 07:24:02;;;;;;;28.08;13.05;;;;;;;;;;4999290;28;20647;-69
2023/03/05 07:26:32;;;;;;;28.40;13.82;;;;;;;;;;4984337;28;20482;-71
2023/03/05 07:28:58;;;;;;;32.17;13.95;;;;;;;;;;4985060;28;20057;-72
2023/03/05 07:31:29;;;;;;;27.33;10.95;;;;;;;;;;4981229;28;20390;-69
2023/03/05 07:33:54;;;;;;;29.83;12.57;;;;;;;;;;4981981;28;20049;-70
2023/03/05 07:36:19;;;;;;;22.05;9.90;;;;;;;;;;4984258;28;20112;-71
2023/03/05 07:38:45;;;;;;;34.17;14.25;;;;;;;;;;4982940;28;20049;-72
2023/03/05 07:41:19;;;;;;;30.45;13.23;;;;;;;;;;4983930;28;20562;-70
2023/03/05 07:43:47;;;;;;;31.02;13.23;;;;;;;;;;4978870;28;20103;-71
2023/03/05 07:46:15;;;;;;;33.95;15.18;;;;;;;;;;4982987;28;20077;-70
2023/03/05 07:48:40;;;;;;;29.27;13.52;;;;;;;;;;4983758;28;20065;-71
2023/03/05 07:51:09;;;;;;;26.08;11.15;;;;;;;;;;4983656;28;20058;-70
2023/03/05 07:53:35;;;;;;;27.15;12.45;;;;;;;;;;4980694;28;20060;-71
2023/03/05 07:56:00;;;;;;;27.75;12.45;;;;;;;;;;4981159;28;20412;-71
2023/03/05 08:02:13;;;;;;;32.33;13.20;;;;;;;;;;4991453;28;20414;-70
2023/03/05 08:04:39;;;;;;;26.52;13.38;;;;;;;;;;4979371;28;20104;-70
2023/03/05 08:07:04;;;;;;;30.70;14.27;;;;;;;;;;4983587;28;20093;-70
2023/03/05 08:09:30;;;;;;;27.25;14.32;;;;;;;;;;4981663;28;20140;-70
2023/03/05 08:11:55;;;;;;;26.77;13.35;;;;;;;;;;4991465;28;20073;-71
2023/03/05 08:14:21;;;;;;;27.33;13.70;;;;;;;;;;4977927;28;20042;-69
2023/03/05 08:16:51;;;;;;;26.42;13.27;;;;;;;;;;4978950;28;20145;-70
2023/03/05 08:19:20;;;;;;;23.85;13.50;;;;;;;;;;4981559;28;20038;-69
2023/03/05 08:21:45;;;;;;;29.70;9.80;;;;;;;;;;4988385;28;20050;-69
2023/03/05 08:24:11;;;;;;;21.63;10.45;;;;;;;;;;4980022;28;20080;-69
2023/03/05 08:26:38;;;;;;;32.38;15.18;;;;;;;;;;4978159;28;20074;-69
2023/03/05 08:29:05;;;;;;;21.15;8.88;;;;;;;;;;4979697;28;20160;-69
2023/03/05 08:31:31;;;;;;;37.70;14.18;;;;;;;;;;4982023;28;20045;-70
2023/03/05 08:33:58;;;;;;;18.65;8.65;;;;;;;;;;4988024;28;20053;-71
2023/03/05 08:36:24;;;;;;;24.67;10.45;;;;;;;;;;4981641;28;20049;-70
2023/03/05 08:38:50;;;;;;;27.27;12.25;;;;;;;;;;4979155;28;20066;-70
2023/03/05 08:41:16;;;;;;;39.92;14.85;;;;;;;;;;4984539;28;20571;-70
2023/03/05 08:43:42;;;;;;;18.27;9.55;;;;;;;;;;4990408;28;20051;-69
2023/03/05 08:46:10;;;;;;;26.83;12.32;;;;;;;;;;4983470;28;20066;-68
2023/03/05 08:48:35;;;;;;;29.77;12.73;;;;;;;;;;4994886;28;20058;-69
2023/03/05 08:51:26;;;;;;;28.10;12.80;;;;;;;;;;4982389;28;20049;-69
2023/03/05 08:53:54;;;;;;;34.88;14.60;;;;;;;;;;4993849;28;20108;-69
2023/03/05 08:56:20;;;;;;;26.05;12.30;;;;;;;;;;4988147;28;20073;-72
2023/03/05 08:59:26;;;;;;;33.20;14.27;;;;;;;;;;4998748;28;20033;-69
2023/03/05 09:01:51;;;;;;;28.45;10.70;;;;;;;;;;4989672;28;20058;-69
2023/03/05 09:04:17;;;;;;;28.40;13.40;;;;;;;;;;4985709;28;20599;-68
2023/03/05 09:06:43;;;;;;;30.98;12.20;;;;;;;;;;4993298;28;20073;-70
2023/03/05 09:09:08;;;;;;;26.08;12.75;;;;;;;;;;4989907;28;20054;-69
2023/03/05 09:11:35;;;;;;;28.15;13.15;;;;;;;;;;4992071;28;20594;-70
2023/03/05 09:14:04;;;;;;;26.95;11.63;;;;;;;;;;4992661;28;20563;-69
2023/03/05 09:16:29;;;;;;;19.50;10.25;;;;;;;;;;5002443;28;20049;-71
2023/03/05 09:18:55;;;;;;;32.20;12.95;;;;;;;;;;5000955;28;20104;-68
2023/03/05 09:21:20;;;;;;;25.65;12.77;;;;;;;;;;4985766;28;20062;-72
2023/03/05 09:23:46;;;;;;;17.88;9.80;;;;;;;;;;4984360;28;20061;-68
2023/03/05 09:26:14;;;;;;;25.52;11.18;;;;;;;;;;4989125;28;20045;-69
2023/03/05 09:28:40;;;;;;;26.60;11.93;;;;;;;;;;4986866;28;20416;-68
2023/03/05 09:31:07;;;;;;;27.42;13.00;;;;;;;;;;4987542;28;20049;-70
2023/03/05 09:33:34;;;;;;;20.83;9.52;;;;;;;;;;4986970;28;20048;-71
2023/03/05 09:36:00;;;;;;;31.45;13.68;;;;;;;;;;4983977;28;20050;-69
2023/03/05 09:38:26;;;;;;;22.45;11.73;;;;;;;;;;4983233;28;21167;-68
2023/03/05 09:41:06;;;;;;;34.08;13.73;;;;;;;;;;4987362;28;20054;-70
2023/03/05 09:43:57;;;;;;;25.80;11.40;;;;;;;;;;4980995;28;20469;-71
2023/03/05 09:46:31;;;;;;;26.60;11.32;;;;;;;;;;5002405;28;20050;-71
2023/03/05 09:49:14;;;;;;;23.42;9.98;;;;;;;;;;4980346;28;20068;-72
2023/03/05 09:51:45;;;;;;;17.80;9.15;;;;;;;;;;4984026;28;20129;-71
2023/03/05 09:54:19;;;;;;;22.88;10.45;;;;;;;;;;4982624;28;20084;-72
2023/03/05 09:56:49;;;;;;;19.00;9.15;;;;;;;;;;4982052;28;20488;-70
2023/03/05 10:00:24;;;;;;;15.10;7.53;;;;;;;;;;4987529;28;20140;-71
2023/03/05 10:02:54;;;;;;;22.85;11.27;;;;;;;;;;4977136;28;20064;-71
2023/03/05 10:05:54;;;;;;;18.63;10.15;;;;;;;;;;4984009;28;20157;-72
2023/03/05 10:08:27;;;;;;;22.80;10.45;;;;;;;;;;5008723;28;20529;-72
2023/03/05 10:10:53;;;;;;;18.50;8.98;;;;;;;;;;4987498;28;20583;-72
2023/03/05 10:13:38;;;;;;;21.25;9.90;;;;;;;;;;4988865;28;20057;-70
2023/03/05 10:16:31;;;;;;;12.73;6.72;;;;;;;;;;5008431;28;20409;-71
2023/03/05 10:19:08;;;;;;;25.27;11.48;;;;;;;;;;4979469;28;20054;-70
2023/03/05 10:21:47;;;;;;;16.15;8.52;;;;;;;;;;4984306;28;20050;-74
2023/03/05 10:24:24;;;;;;;20.35;9.95;;;;;;;;;;4982161;28;20054;-73
2023/03/05 10:27:04;;;;;;;21.10;9.25;;;;;;;;;;4993639;28;20101;-69
2023/03/05 10:29:45;;;;;;;20.52;10.27;;;;;;;;;;4977342;28;20050;-70
2023/03/05 10:32:29;;;;;;;21.85;10.40;;;;;;;;;;5000822;28;20054;-72
2023/03/05 10:35:05;;;;;;;14.63;8.25;;;;;;;;;;4995189;28;20806;-69
2023/03/05 10:37:59;;;;;;;19.75;9.68;;;;;;;;;;4977071;28;20042;-69
2023/03/05 10:40:31;;;;;;;19.20;9.73;;;;;;;;;;4997876;28;20081;-70
2023/03/05 10:43:09;;;;;;;20.65;10.18;;;;;;;;;;4981383;28;20058;-72
2023/03/05 10:45:43;;;;;;;19.63;8.57;;;;;;;;;;4986302;28;20575;-70
2023/03/05 10:48:30;;;;;;;17.52;9.30;;;;;;;;;;4987392;28;20531;-71
2023/03/05 10:51:07;;;;;;;17.95;8.98;;;;;;;;;;4983854;28;20057;-71
2023/03/05 10:53:55;;;;;;;15.27;8.10;;;;;;;;;;4986284;28;20455;-70
2023/03/05 10:56:23;;;;;;;12.60;7.30;;;;;;;;;;4999074;28;20046;-70
2023/03/05 10:58:51;;;;;;;19.60;9.32;;;;;;;;;;4982943;28;20506;-70
2023/03/05 11:01:16;;;;;;;18.30;9.52;;;;;;;;;;4980491;28;20072;-70
2023/03/05 11:03:56;;;;;;;19.90;8.77;;;;;;;;;;4988056;28;20496;-70
2023/03/05 11:06:38;;;;;;;17.48;8.82;;;;;;;;;;4983012;28;20054;-70
2023/03/05 11:09:31;;;;;;;16.23;7.68;;;;;;;;;;4981623;28;20501;-71
2023/03/05 11:12:20;;;;;;;20.70;9.05;;;;;;;;;;4978954;28;20058;-71
2023/03/05 11:15:21;;;;;;;15.23;9.10;;;;;;;;;;4981998;28;20412;-70
2023/03/05 11:18:03;;;;;;;12.27;6.75;;;;;;;;;;4994101;28;20057;-70
2023/03/05 11:20:32;;;;;;;8.65;3.90;;;;;;;;;;4981569;28;20046;-71
2023/03/05 11:23:12;;;;;;;20.23;8.52;;;;;;;;;;4982033;28;21136;-70
2023/03/05 11:25:53;;;;;;;12.73;6.18;;;;;;;;;;4983019;28;20077;-70
2023/03/05 11:28:21;;;;;;;25.58;9.23;;;;;;;;;;4984767;28;20572;-70
2023/03/05 11:31:01;;;;;;;22.92;10.02;;;;;;;;;;4982078;28;20058;-73
2023/03/05 11:33:28;;;;;;;12.90;6.25;;;;;;;;;;5009955;28;20053;-71
2023/03/05 11:36:11;;;;;;;12.30;5.68;;;;;;;;;;4981813;28;20424;-74
2023/03/05 11:39:06;;;;;;;14.38;7.38;;;;;;;;;;4983472;28;20054;-70
2023/03/05 11:41:51;;;;;;;13.50;7.25;;;;;;;;;;4984191;28;20390;-70
2023/03/05 11:44:23;;;;;;;13.98;5.97;;;;;;;;;;4996076;28;20069;-70
2023/03/05 11:46:56;;;;;;;15.43;7.78;;;;;;;;;;4981005;28;20057;-70
2023/03/05 11:49:27;;;;;;;11.23;5.30;;;;;;;;;;4982527;28;20049;-71
2023/03/05 11:52:07;;;;;;;11.53;7.00;;;;;;;;;;4983240;28;20057;-70
2023/03/05 11:54:43;;;;;;;12.13;4.03;;;;;;;;;;4981705;28;20453;-70
2023/03/05 11:57:14;;;;;;;14.32;5.03;;;;;;;;;;4999135;28;20061;-70
2023/03/05 11:59:39;;;;;;;14.32;7.35;;;;;;;;;;4987165;28;20039;-70
2023/03/05 12:02:26;;;;;;;21.50;8.07;;;;;;;;;;4987190;28;20061;-74
2023/03/05 12:04:52;;;;;;;10.23;6.00;;;;;;;;;;4981718;28;20923;-69
2023/03/05 12:07:38;;;;;;;11.57;6.10;;;;;;;;;;4985999;28;20053;-72
2023/03/05 12:10:04;;;;;;;9.68;4.85;;;;;;;;;;5011967;28;20057;-70
2023/03/05 12:12:36;;;;;;;9.25;4.78;;;;;;;;;;4982030;28;20061;-73
2023/03/05 12:15:10;;;;;;;15.68;8.32;;;;;;;;;;4983312;28;20566;-69
2023/03/05 12:17:55;;;;;;;17.00;8.45;;;;;;;;;;4983180;28;20049;-72
2023/03/05 12:20:48;;;;;;;21.70;9.93;;;;;;;;;;4997142;28;20916;-70
2023/03/05 12:23:20;;;;;;;18.67;9.50;;;;;;;;;;4987514;28;20068;-69
2023/03/05 12:25:47;;;;;;;13.18;7.30;;;;;;;;;;4989280;28;20045;-73
2023/03/05 12:28:15;;;;;;;17.27;8.85;;;;;;;;;;4989893;28;20168;-70
2023/03/05 12:30:41;;;;;;;21.05;9.70;;;;;;;;;;4983205;28;20050;-70
2023/03/05 12:33:32;;;;;;;12.15;7.30;;;;;;;;;;4984771;28;20045;-73
2023/03/05 12:36:16;;;;;;;14.82;8.45;;;;;;;;;;4990416;28;20140;-70
2023/03/05 12:38:42;;;;;;;15.15;8.27;;;;;;;;;;4982965;28;20125;-72
2023/03/05 12:41:23;;;;;;;16.90;8.82;;;;;;;;;;4985588;28;20057;-72
2023/03/05 12:44:06;;;;;;;16.50;9.90;;;;;;;;;;4982959;28;20054;-71
2023/03/05 12:46:34;;;;;;;15.50;8.20;;;;;;;;;;4989940;28;20091;-72
2023/03/05 12:49:22;;;;;;;25.15;13.38;;;;;;;;;;4981556;28;20652;-71
2023/03/05 12:51:50;;;;;;;18.27;10.30;;;;;;;;;;4985258;28;20164;-72
2023/03/05 12:54:38;;;;;;;21.23;11.15;;;;;;;;;;4980684;28;20061;-74
2023/03/05 12:57:18;;;;;;;23.45;11.38;;;;;;;;;;4989947;28;20072;-72
2023/03/05 13:00:09;;;;;;;22.00;10.82;;;;;;;;;;4986876;28;20129;-71
2023/03/05 13:06:32;;;;;;;11.48;7.00;;;;;;;;;;4995429;28;20072;-70
2023/03/05 13:09:21;;;;;;;16.10;8.77;;;;;;;;;;4983977;28;20475;-70
2023/03/05 13:11:49;;;;;;;16.25;8.63;;;;;;;;;;4985836;28;20050;-72
2023/03/05 13:14:45;;;;;;;19.92;9.13;;;;;;;;;;4989587;28;20104;-72
2023/03/05 13:17:37;;;;;;;18.67;9.02;;;;;;;;;;4993451;28;20060;-70
2023/03/05 13:20:24;;;;;;;13.02;6.72;;;;;;;;;;4983136;28;20064;-73
2023/03/05 13:23:20;;;;;;;14.73;7.90;;;;;;;;;;4982027;28;20057;-71
2023/03/05 13:26:17;;;;;;;14.05;7.68;;;;;;;;;;4985559;28;20046;-71
2023/03/05 13:29:04;;;;;;;14.20;7.28;;;;;;;;;;4988578;28;20416;-68
2023/03/05 13:32:25;;;;;;;16.83;8.57;;;;;;;;;;4994556;28;20045;-69
2023/03/05 13:34:53;;;;;;;15.18;7.00;;;;;;;;;;4999761;28;20716;-69
2023/03/05 13:37:36;;;;;;;19.30;9.30;;;;;;;;;;4989909;28;20133;-70
2023/03/05 13:40:20;;;;;;;15.88;8.00;;;;;;;;;;4992633;28;20046;-69
2023/03/05 13:42:45;;;;;;;15.15;8.25;;;;;;;;;;4988186;28;20152;-70
2023/03/05 13:45:29;;;;;;;15.82;6.57;;;;;;;;;;4991220;28;20034;-70
2023/03/05 13:48:00;;;;;;;17.48;8.57;;;;;;;;;;4986367;28;20054;-70
2023/03/05 13:50:26;;;;;;;13.93;7.68;;;;;;;;;;4996900;28;20049;-70
2023/03/05 13:52:51;;;;;;;18.30;8.73;;;;;;;;;;4994590;28;20057;-71
2023/03/05 13:55:17;;;;;;;13.07;7.60;;;;;;;;;;4986599;28;20417;-70
2023/03/05 13:57:46;;;;;;;18.02;7.68;;;;;;;;;;4986273;28;20114;-69
2023/03/05 14:00:31;;;;;;;18.15;9.45;;;;;;;;;;4984575;28;20065;-70
2023/03/05 14:03:06;;;;;;;19.80;8.98;;;;;;;;;;4986748;28;21043;-71
2023/03/05 14:05:31;;;;;;;34.53;11.90;;;;;;;;;;5004382;28;20145;-70
2023/03/05 14:07:57;;;;;;;16.02;8.32;;;;;;;;;;4982822;28;20046;-68
2023/03/05 14:10:36;;;;;;;12.98;6.57;;;;;;;;;;4991538;28;20081;-71
2023/03/05 14:13:05;;;;;;;21.35;8.95;;;;;;;;;;4991115;28;20054;-71
2023/03/05 14:15:33;;;;;;;38.55;14.20;;;;;;;;;;4985047;28;20054;-69
2023/03/05 14:18:10;;;;;;;14.02;8.15;;;;;;;;;;4983607;28;20122;-71
2023/03/05 14:20:56;;;;;;;15.30;8.35;;;;;;;;;;4988536;28;20057;-69
2023/03/05 14:23:33;;;;;;;11.48;6.65;;;;;;;;;;4989978;28;20050;-69
2023/03/05 14:26:21;;;;;;;17.92;8.65;;;;;;;;;;4986742;28;21005;-69
2023/03/05 14:28:53;;;;;;;12.60;6.78;;;;;;;;;;4984740;28;20058;-70
2023/03/05 14:31:19;;;;;;;12.00;7.03;;;;;;;;;;4983592;28;20043;-72
2023/03/05 14:33:45;;;;;;;15.05;7.72;;;;;;;;;;4982543;28;20042;-69
2023/03/05 14:36:11;;;;;;;15.95;7.88;;;;;;;;;;4989540;28;20069;-71
2023/03/05 14:38:41;;;;;;;19.02;8.15;;;;;;;;;;4985030;28;20113;-69
2023/03/05 14:41:37;;;;;;;15.35;8.43;;;;;;;;;;4993009;28;20535;-69
2023/03/05 14:44:11;;;;;;;11.25;7.55;;;;;;;;;;4985313;28;20046;-70
2023/03/05 14:46:37;;;;;;;15.77;7.10;;;;;;;;;;4985073;28;20080;-70
2023/03/05 14:49:02;;;;;;;14.52;8.00;;;;;;;;;;4990114;28;20088;-71